Terminal Aerodrome Forecast
Issued by NWS

Home | Current Version | Previous Version | Text Only | Print | Product List | Glossary On
Versions: 1 2 3 4 5 6 7 8 9 10 11 12 13 14 15 16 17 18 19 20 21 22 23 24
000
FTUS41 KALY 261700
TAFPSF
TAF
KPSF 261731Z 2618/2718 06007KT P6SM VCSH OVC040
     FM262000 05008KT 6SM -SN OVC030
      TEMPO 2620/2624 2SM -SN OVC018
     FM270000 04010KT 3SM -SN BR OVC012
      TEMPO 2700/2703 1SM -SN BR OVC007
     FM270300 02010G15KT 3/4SM -SN BR VV006
     FM271000 02012G20KT 1/2SM SN FZFG VV004
     FM271300 02014G24KT 1/4SM +SN FZFG VV002=

USA.gov is the U.S. government's official web portal to all federal, state and local government web resources and services.